Aviation Digital Data Service (ADDS)

Output produced by METARs form (2353 UTC 23 May 2022)
found at http://www.aviationweather.gov/metar/data/
 
HTAR 231700Z 2318/2418 36006KT 9999 FEW026 
     BECMG 2402/2405 12010KT BKN020
       
HTDA 231900Z 18004KT 9999 FEW012 25/23 Q1014 NOSIG
HTDA 231700Z 2318/2424 15005KT 9999 SCT013
       
HTDO 231700Z 2318/2418 09010KT 9999 FEW025
       
HTKJ 231900Z 00000KT 9999 FEW026 22/10 Q1017 NOSIG
HTKJ 231700Z 2318/2418 09005KT 9999 SCT025
       
HTMW 231900Z 00000KT 9999 BKN021 FEW022CB 24/20 Q1015 NOSIG
HTMW 231700Z 2318/2418 14010KT 9999 FEW020 FEW021CB 
     BECMG 2411/2413 32010KT
       
HTZA 231900Z 19005KT 9999 FEW019 27/24 Q1013
HTZA 231700Z 2318/2418 15005KT 9999 FEW016 
     BECMG 2403/2405 22010KT SCT018 
     BECMG 2410/2412 14015KT